createdAt,value
2023-04-15T00:00:34.561Z,95525.22
2023-04-15T00:01:37.669Z,95524.63
2023-04-15T00:02:39.566Z,95525.03
2023-04-15T00:03:41.694Z,95521.44
2023-04-15T00:04:43.648Z,95517.28
2023-04-15T00:05:45.506Z,95522.44
2023-04-15T00:06:51.736Z,95524.25
2023-04-15T00:07:54.298Z,95511.13
2023-04-15T00:08:56.054Z,95517.47
2023-04-15T00:09:58.783Z,95512.72
2023-04-15T00:11:06.100Z,95517.47
2023-04-15T00:12:09.446Z,95517.09
2023-04-15T00:13:11.214Z,95513.69
2023-04-15T00:14:13.843Z,95511.72
2023-04-15T00:15:15.592Z,95519.28
2023-04-15T00:16:17.486Z,95509.72
2023-04-15T00:17:19.364Z,95521.44
2023-04-15T00:18:21.196Z,95516.66
2023-04-15T00:19:24.443Z,95510.72
2023-04-15T00:20:26.544Z,95502.19
2023-04-15T00:21:30.446Z,95502.38
2023-04-15T00:22:32.960Z,95508.53
2023-04-15T00:23:36.701Z,95510.72
2023-04-15T00:24:38.720Z,95503.38
2023-04-15T00:25:40.738Z,95509.13
2023-04-15T00:26:42.733Z,95499.00
2023-04-15T00:27:44.501Z,95497.19
2023-04-15T00:28:46.524Z,95502.00
2023-04-15T00:29:48.419Z,95512.50
2023-04-15T00:30:50.392Z,95508.91
2023-04-15T00:31:52.567Z,95510.31
2023-04-15T00:32:54.442Z,95501.97
2023-04-15T00:33:56.273Z,95504.72
2023-04-15T00:34:58.869Z,95502.75
2023-04-15T00:36:00.615Z,95503.72
2023-04-15T00:37:02.683Z,95508.28
2023-04-15T00:38:05.123Z,95501.56
2023-04-15T00:39:07.097Z,95504.91
2023-04-15T00:40:12.536Z,95500.56
2023-04-15T00:41:14.668Z,95506.34
2023-04-15T00:42:17.476Z,95500.38
2023-04-15T00:43:19.306Z,95502.38
2023-04-15T00:44:21.339Z,95499.78
2023-04-15T00:45:23.581Z,95497.63
2023-04-15T00:46:27.061Z,95496.41
2023-04-15T00:47:30.177Z,95487.28
2023-04-15T00:48:32.574Z,95488.06
2023-04-15T00:49:34.384Z,95486.28
2023-04-15T00:50:36.080Z,95485.69
2023-04-15T00:51:37.918Z,95488.47
2023-04-15T00:52:40.209Z,95488.88
2023-04-15T00:53:42.279Z,95482.88
2023-04-15T00:54:44.091Z,95488.66
2023-04-15T00:55:45.873Z,95488.84
2023-04-15T00:56:47.722Z,95493.63
2023-04-15T00:57:49.641Z,95487.44
2023-04-15T00:58:51.960Z,95479.53
2023-04-15T00:59:54.088Z,95478.13
2023-04-15T01:00:56.041Z,95481.50
2023-04-15T01:01:57.987Z,95477.13
2023-04-15T01:03:00.333Z,95482.09
2023-04-15T01:04:02.669Z,95485.28
2023-04-15T01:05:05.107Z,95481.88
2023-04-15T01:06:07.991Z,95482.47
2023-04-15T01:07:09.773Z,95484.88
2023-04-15T01:08:11.733Z,95482.47
2023-04-15T01:09:13.517Z,95482.50
2023-04-15T01:10:15.496Z,95487.06
2023-04-15T01:11:17.569Z,95484.88
2023-04-15T01:12:20.825Z,95486.06
2023-04-15T01:13:24.196Z,95475.16
2023-04-15T01:14:26.180Z,95471.97
2023-04-15T01:15:27.972Z,95486.03
2023-04-15T01:16:29.925Z,95488.44
2023-04-15T01:17:31.876Z,95476.53
2023-04-15T01:18:33.797Z,95481.28
2023-04-15T01:19:37.444Z,95492.00
2023-04-15T01:20:39.265Z,95487.63
2023-04-15T01:21:41.480Z,95480.91
2023-04-15T01:22:43.408Z,95481.31
2023-04-15T01:23:47.475Z,95487.66
2023-04-15T01:25:02.178Z,95482.09
2023-04-15T01:26:04.057Z,95478.72
2023-04-15T01:27:06.056Z,95485.09
2023-04-15T01:28:09.776Z,95485.88
2023-04-15T01:29:12.561Z,95476.94
2023-04-15T01:30:14.274Z,95487.63
2023-04-15T01:31:16.056Z,95479.72
2023-04-15T01:32:17.847Z,95477.34
2023-04-15T01:33:19.620Z,95474.16
2023-04-15T01:34:22.850Z,95479.72
2023-04-15T01:35:24.921Z,95483.50
2023-04-15T01:36:26.687Z,95487.25
2023-04-15T01:37:28.995Z,95486.47
2023-04-15T01:38:31.615Z,95485.69
2023-04-15T01:39:34.113Z,95481.53
2023-04-15T01:40:35.934Z,95478.72
2023-04-15T01:41:37.758Z,95484.72
2023-04-15T01:42:39.741Z,95487.28
2023-04-15T01:43:41.459Z,95493.25
2023-04-15T01:44:44.540Z,95481.31
2023-04-15T01:45:47.282Z,95485.31
2023-04-15T01:46:49.725Z,95471.56
2023-04-15T01:47:51.645Z,95474.97
2023-04-15T01:48:53.482Z,95471.78
2023-04-15T01:49:55.281Z,95476.31
2023-04-15T01:50:58.575Z,95478.88
2023-04-15T01:52:00.946Z,95476.09
2023-04-15T01:53:02.717Z,95476.50
2023-04-15T01:54:04.457Z,95477.69
2023-04-15T01:55:06.539Z,95478.09
2023-04-15T01:56:08.405Z,95471.56
2023-04-15T01:57:11.638Z,95473.34
2023-04-15T01:58:13.424Z,95483.69
2023-04-15T01:59:15.260Z,95469.19
2023-04-15T02:00:17.888Z,95472.78
2023-04-15T02:01:20.188Z,95472.59
2023-04-15T02:02:22.168Z,95477.75
2023-04-15T02:03:25.368Z,95472.38
2023-04-15T02:04:28.187Z,95466.59
2023-04-15T02:05:29.965Z,95471.78
2023-04-15T02:06:32.011Z,95473.75
2023-04-15T02:07:33.862Z,95472.75
2023-04-15T02:08:35.614Z,95469.38
2023-04-15T02:09:37.367Z,95467.22
2023-04-15T02:10:39.427Z,95470.38
2023-04-15T02:11:41.198Z,95471.38
2023-04-15T02:12:43.199Z,95466.81
2023-04-15T02:13:44.961Z,95464.63
2023-04-15T02:14:47.451Z,95466.63
2023-04-15T02:15:50.071Z,95459.06
2023-04-15T02:16:51.904Z,95456.25
2023-04-15T02:17:55.663Z,95462.25
2023-04-15T02:18:58.111Z,95465.41
2023-04-15T02:19:59.938Z,95464.03
2023-04-15T02:21:02.677Z,95462.63
2023-04-15T02:22:04.619Z,95464.59
2023-04-15T02:23:07.708Z,95478.91
2023-04-15T02:24:09.494Z,95469.78
2023-04-15T02:25:11.995Z,95465.81
2023-04-15T02:26:14.162Z,95463.63
2023-04-15T02:27:17.162Z,95458.47
2023-04-15T02:28:18.955Z,95466.63
2023-04-15T02:29:20.697Z,95468.41
2023-04-15T02:30:24.206Z,95456.88
2023-04-15T02:31:26.310Z,95462.63
2023-04-15T02:32:29.229Z,95463.66
2023-04-15T02:33:32.564Z,95459.88
2023-04-15T02:34:34.459Z,95465.25
2023-04-15T02:35:39.541Z,95467.81
2023-04-15T02:36:41.616Z,95463.25
2023-04-15T02:37:46.052Z,95465.63
2023-04-15T02:38:47.790Z,95471.19
2023-04-15T02:39:50.394Z,95477.94
2023-04-15T02:40:52.359Z,95474.38
2023-04-15T02:41:55.630Z,95470.59
2023-04-15T02:42:57.398Z,95476.34
2023-04-15T02:43:59.227Z,95471.78
2023-04-15T02:45:01.027Z,95469.78
2023-04-15T02:46:02.888Z,95469.00
2023-04-15T02:47:06.964Z,95478.13
2023-04-15T02:48:08.726Z,95468.59
2023-04-15T02:49:11.345Z,95470.38
2023-04-15T02:50:13.665Z,95475.38
2023-04-15T02:51:16.924Z,95471.38
2023-04-15T02:52:18.832Z,95469.41
2023-04-15T02:53:21.032Z,95482.91
2023-04-15T02:54:26.170Z,95471.19
2023-04-15T02:55:28.100Z,95476.56
2023-04-15T02:56:31.106Z,95479.34
2023-04-15T02:57:32.970Z,95476.75
2023-04-15T02:58:36.235Z,95467.19
2023-04-15T02:59:39.235Z,95468.63
2023-04-15T03:00:40.975Z,95467.59
2023-04-15T03:01:42.988Z,95465.81
2023-04-15T03:02:47.676Z,95466.63
2023-04-15T03:03:49.866Z,95464.22
2023-04-15T03:04:52.703Z,95459.69
2023-04-15T03:05:54.655Z,95460.47
2023-04-15T03:06:56.999Z,95456.28
2023-04-15T03:07:58.801Z,95457.28
2023-04-15T03:09:01.254Z,95459.88
2023-04-15T03:10:03.750Z,95459.88
2023-04-15T03:11:05.587Z,95462.03
2023-04-15T03:12:07.618Z,95464.22
2023-04-15T03:13:09.365Z,95467.41
2023-04-15T03:14:11.398Z,95463.63
2023-04-15T03:15:13.270Z,95464.44
2023-04-15T03:16:15.170Z,95462.66
2023-04-15T03:17:17.483Z,95463.44
2023-04-15T03:18:19.233Z,95455.69
2023-04-15T03:19:21.317Z,95453.53
2023-04-15T03:20:24.745Z,95461.66
2023-04-15T03:21:27.000Z,95470.59
2023-04-15T03:22:28.843Z,95467.59
2023-04-15T03:23:31.582Z,95469.81
2023-04-15T03:24:33.398Z,95462.84
2023-04-15T03:25:37.834Z,95469.22
2023-04-15T03:26:39.954Z,95465.44
2023-04-15T03:27:42.242Z,95470.19
2023-04-15T03:28:44.000Z,95465.03
2023-04-15T03:29:46.147Z,95477.13
2023-04-15T03:30:48.176Z,95474.97
2023-04-15T03:31:50.689Z,95480.53
2023-04-15T03:32:52.567Z,95476.16
2023-04-15T03:33:54.373Z,95473.56
2023-04-15T03:34:56.214Z,95471.41
2023-04-15T03:35:58.002Z,95472.38
2023-04-15T03:37:00.730Z,95474.78
2023-04-15T03:38:02.500Z,95471.78
2023-04-15T03:39:04.449Z,95476.56
2023-04-15T03:40:06.499Z,95466.81
2023-04-15T03:41:08.279Z,95466.44
2023-04-15T03:42:10.067Z,95470.59
2023-04-15T03:43:12.554Z,95473.78
2023-04-15T03:44:14.305Z,95468.59
2023-04-15T03:45:16.348Z,95468.19
2023-04-15T03:46:18.642Z,95464.84
2023-04-15T03:47:20.781Z,95469.81
2023-04-15T03:48:22.788Z,95468.19
2023-04-15T03:49:24.858Z,95473.56
2023-04-15T03:50:26.804Z,95486.88
2023-04-15T03:51:28.601Z,95484.13
2023-04-15T03:52:30.452Z,95479.72
2023-04-15T03:53:32.745Z,95487.28
2023-04-15T03:54:34.472Z,95490.47
2023-04-15T03:55:36.258Z,95489.47
2023-04-15T03:56:37.991Z,95488.69
2023-04-15T03:57:39.986Z,95488.06
2023-04-15T03:58:41.765Z,95486.47
2023-04-15T03:59:44.171Z,95488.06
2023-04-15T04:00:46.138Z,95485.31
2023-04-15T04:01:48.800Z,95494.44
2023-04-15T04:02:51.098Z,95488.47
2023-04-15T04:03:53.152Z,95492.47
2023-04-15T04:04:55.339Z,95491.88
2023-04-15T04:05:57.114Z,95495.22
2023-04-15T04:06:58.858Z,95492.44
2023-04-15T04:08:00.904Z,95490.88
2023-04-15T04:09:03.019Z,95489.47
2023-04-15T04:10:05.275Z,95489.06
2023-04-15T04:11:07.097Z,95485.91
2023-04-15T04:12:09.228Z,95491.47
2023-04-15T04:13:10.965Z,95492.44
2023-04-15T04:14:12.824Z,95493.66
2023-04-15T04:15:14.682Z,95493.22
2023-04-15T04:16:16.796Z,95493.03
2023-04-15T04:17:18.769Z,95490.06
2023-04-15T04:18:20.844Z,95500.41
2023-04-15T04:19:22.739Z,95489.25
2023-04-15T04:20:24.561Z,95498.59
2023-04-15T04:21:26.984Z,95496.81
2023-04-15T04:22:28.889Z,95498.59
2023-04-15T04:23:30.793Z,95493.63
2023-04-15T04:24:32.792Z,95494.66
2023-04-15T04:25:34.547Z,95490.88
2023-04-15T04:26:36.292Z,95494.44
2023-04-15T04:27:38.151Z,95496.81
2023-04-15T04:28:40.790Z,95502.38
2023-04-15T04:29:42.846Z,95509.13
2023-04-15T04:30:44.779Z,95507.34
2023-04-15T04:31:47.336Z,95506.34
2023-04-15T04:32:50.333Z,95494.63
2023-04-15T04:33:52.116Z,95510.31
2023-04-15T04:34:54.000Z,95505.75
2023-04-15T04:35:55.804Z,95504.75
2023-04-15T04:36:57.631Z,95503.38
2023-04-15T04:37:59.468Z,95502.75
2023-04-15T04:39:01.821Z,95500.59
2023-04-15T04:40:03.994Z,95515.50
2023-04-15T04:41:06.309Z,95514.69
2023-04-15T04:42:08.202Z,95504.75
2023-04-15T04:43:10.273Z,95500.38
2023-04-15T04:44:12.021Z,95507.53
2023-04-15T04:45:13.874Z,95519.03
2023-04-15T04:46:15.857Z,95517.06
2023-04-15T04:47:17.641Z,95514.28
2023-04-15T04:48:20.186Z,95514.09
2023-04-15T04:49:21.953Z,95510.72
2023-04-15T04:50:23.764Z,95509.53
2023-04-15T04:51:26.438Z,95517.06
2023-04-15T04:52:28.277Z,95528.78
2023-04-15T04:53:30.024Z,95520.84
2023-04-15T04:54:32.707Z,95512.31
2023-04-15T04:55:37.237Z,95514.31
2023-04-15T04:56:40.029Z,95510.53
2023-04-15T04:57:41.828Z,95512.28
2023-04-15T04:58:43.627Z,95517.88
2023-04-15T04:59:45.383Z,95516.66
2023-04-15T05:00:47.267Z,95519.84
2023-04-15T05:01:49.080Z,95521.25
2023-04-15T05:02:51.026Z,95518.88
2023-04-15T05:03:52.966Z,95527.00
2023-04-15T05:04:54.845Z,95520.25
2023-04-15T05:05:56.763Z,95521.03
2023-04-15T05:06:59.596Z,95529.16
2023-04-15T05:08:01.655Z,95525.97
2023-04-15T05:09:03.927Z,95518.84
2023-04-15T05:10:06.258Z,95527.00
2023-04-15T05:11:08.166Z,95525.59
2023-04-15T05:12:15.256Z,95530.97
2023-04-15T05:13:17.059Z,95529.56
2023-04-15T05:14:18.823Z,95524.19
2023-04-15T05:15:20.667Z,95521.78
2023-04-15T05:16:22.532Z,95515.66
2023-04-15T05:17:24.402Z,95509.47
2023-04-15T05:18:26.201Z,95532.91
2023-04-15T05:19:27.983Z,95530.50
2023-04-15T05:20:29.778Z,95535.66
2023-04-15T05:21:32.888Z,95524.75
2023-04-15T05:22:34.736Z,95524.56
2023-04-15T05:23:36.757Z,95529.34
2023-04-15T05:24:38.579Z,95524.38
2023-04-15T05:25:40.420Z,95530.72
2023-04-15T05:26:43.026Z,95525.38
2023-04-15T05:27:44.914Z,95516.63
2023-04-15T05:28:46.716Z,95524.00
2023-04-15T05:29:48.563Z,95528.75
2023-04-15T05:30:50.754Z,95523.81
2023-04-15T05:31:53.859Z,95525.56
2023-04-15T05:32:55.909Z,95528.56
2023-04-15T05:33:58.904Z,95531.56
2023-04-15T05:35:00.836Z,95535.72
2023-04-15T05:36:02.656Z,95541.25
2023-04-15T05:37:04.484Z,95540.09
2023-04-15T05:38:06.685Z,95534.50
2023-04-15T05:39:08.490Z,95539.31
2023-04-15T05:40:10.857Z,95537.50
2023-04-15T05:41:12.825Z,95548.84
2023-04-15T05:42:14.733Z,95547.66
2023-04-15T05:43:16.493Z,95551.25
2023-04-15T05:44:18.302Z,95552.44
2023-04-15T05:45:20.525Z,95544.50
2023-04-15T05:46:22.961Z,95541.50
2023-04-15T05:47:25.995Z,95542.28
2023-04-15T05:48:27.749Z,95545.88
2023-04-15T05:49:29.626Z,95548.66
2023-04-15T05:50:31.597Z,95553.41
2023-04-15T05:51:33.353Z,95545.66
2023-04-15T05:52:35.891Z,95544.28
2023-04-15T05:53:37.701Z,95539.72
2023-04-15T05:54:39.532Z,95548.47
2023-04-15T05:55:41.377Z,95548.47
2023-04-15T05:56:43.209Z,95556.81
2023-04-15T05:57:45.016Z,95553.22
2023-04-15T05:58:46.765Z,95538.31
2023-04-15T05:59:49.503Z,95548.25
2023-04-15T06:00:51.502Z,95552.44
2023-04-15T06:01:53.513Z,95545.47
2023-04-15T06:02:56.608Z,95559.16
2023-04-15T06:03:58.555Z,95562.16
2023-04-15T06:05:01.351Z,95559.00
2023-04-15T06:06:04.204Z,95556.00
2023-04-15T06:07:06.566Z,95556.22
2023-04-15T06:08:08.590Z,95548.06
2023-04-15T06:09:10.405Z,95557.59
2023-04-15T06:10:12.161Z,95555.44
2023-04-15T06:11:13.995Z,95551.47
2023-04-15T06:12:15.960Z,95543.72
2023-04-15T06:13:17.929Z,95539.34
2023-04-15T06:14:19.746Z,95546.28
2023-04-15T06:15:21.539Z,95553.63
2023-04-15T06:16:23.660Z,95565.38
2023-04-15T06:17:25.850Z,95551.06
2023-04-15T06:18:28.903Z,95546.50
2023-04-15T06:19:30.944Z,95555.44
2023-04-15T06:20:32.908Z,95554.03
2023-04-15T06:21:34.813Z,95556.63
2023-04-15T06:22:37.359Z,95548.88
2023-04-15T06:23:41.514Z,95555.22
2023-04-15T06:24:43.296Z,95561.22
2023-04-15T06:25:45.040Z,95559.22
2023-04-15T06:26:46.766Z,95558.81
2023-04-15T06:27:48.665Z,95561.03
2023-04-15T06:28:50.908Z,95562.41
2023-04-15T06:29:52.662Z,95559.63
2023-04-15T06:30:54.869Z,95559.22
2023-04-15T06:31:57.058Z,95567.97
2023-04-15T06:32:59.194Z,95560.00
2023-04-15T06:34:01.058Z,95568.16
2023-04-15T06:35:03.008Z,95572.72
2023-04-15T06:36:04.814Z,95569.94
2023-04-15T06:37:06.915Z,95572.16
2023-04-15T06:38:08.648Z,95567.97
2023-04-15T06:39:10.784Z,95562.78
2023-04-15T06:40:12.717Z,95563.38
2023-04-15T06:41:14.552Z,95566.38
2023-04-15T06:42:16.455Z,95571.56
2023-04-15T06:43:18.686Z,95580.28
2023-04-15T06:44:21.964Z,95570.53
2023-04-15T06:45:23.786Z,95571.56
2023-04-15T06:46:25.664Z,95571.38
2023-04-15T06:47:27.600Z,95566.38
2023-04-15T06:48:29.323Z,95578.53
2023-04-15T06:49:32.017Z,95572.34
2023-04-15T06:50:33.966Z,95574.72
2023-04-15T06:51:36.462Z,95572.94
2023-04-15T06:52:38.261Z,95576.72
2023-04-15T06:53:42.231Z,95583.09
2023-04-15T06:54:44.147Z,95584.06
2023-04-15T06:55:46.127Z,95581.69
2023-04-15T06:56:48.403Z,95577.72
2023-04-15T06:57:50.181Z,95589.25
2023-04-15T06:58:52.519Z,95579.88
2023-04-15T06:59:54.851Z,95574.94
2023-04-15T07:00:57.098Z,95582.31
2023-04-15T07:01:58.884Z,95593.03
2023-04-15T07:03:04.064Z,95587.44
2023-04-15T07:04:06.450Z,95588.84
2023-04-15T07:05:08.784Z,95585.25
2023-04-15T07:06:10.578Z,95591.81
2023-04-15T07:07:12.494Z,95598.19
2023-04-15T07:08:14.372Z,95591.03
2023-04-15T07:09:16.152Z,95593.84
2023-04-15T07:10:17.892Z,95598.19
2023-04-15T07:11:20.175Z,95598.19
2023-04-15T07:12:22.080Z,95601.19
2023-04-15T07:13:23.825Z,95593.00
2023-04-15T07:14:25.715Z,95596.41
2023-04-15T07:15:27.571Z,95598.38
2023-04-15T07:16:30.150Z,95603.97
2023-04-15T07:17:31.985Z,95598.97
2023-04-15T07:18:33.804Z,95601.19
2023-04-15T07:19:36.320Z,95600.59
2023-04-15T07:20:38.288Z,95609.50
2023-04-15T07:21:41.821Z,95611.13
2023-04-15T07:22:43.887Z,95608.13
2023-04-15T07:23:45.704Z,95608.72
2023-04-15T07:24:47.497Z,95602.56
2023-04-15T07:25:49.460Z,95605.75
2023-04-15T07:26:51.492Z,95609.13
2023-04-15T07:27:53.455Z,95610.91
2023-04-15T07:28:55.155Z,95610.31
2023-04-15T07:29:56.947Z,95612.50
2023-04-15T07:30:58.755Z,95608.72
2023-04-15T07:32:00.695Z,95610.91
2023-04-15T07:33:03.326Z,95610.50
2023-04-15T07:34:05.478Z,95609.72
2023-04-15T07:35:08.084Z,95603.97
2023-04-15T07:36:10.790Z,95608.72
2023-04-15T07:37:12.940Z,95606.13
2023-04-15T07:38:14.764Z,95610.50
2023-04-15T07:39:16.851Z,95604.75
2023-04-15T07:40:18.755Z,95609.50
2023-04-15T07:41:21.296Z,95612.09
2023-04-15T07:42:23.064Z,95608.53
2023-04-15T07:43:24.874Z,95617.28
2023-04-15T07:44:27.184Z,95618.47
2023-04-15T07:45:28.865Z,95615.28
2023-04-15T07:46:31.002Z,95622.44
2023-04-15T07:47:32.936Z,95614.28
2023-04-15T07:48:35.575Z,95605.91
2023-04-15T07:49:38.804Z,95609.31
2023-04-15T07:50:40.620Z,95617.25
2023-04-15T07:51:42.402Z,95618.41
2023-04-15T07:52:44.488Z,95620.81
2023-04-15T07:53:46.331Z,95625.19
2023-04-15T07:54:48.117Z,95629.56
2023-04-15T07:55:49.950Z,95619.59
2023-04-15T07:56:52.054Z,95621.63
2023-04-15T07:57:53.790Z,95629.53
2023-04-15T07:58:55.785Z,95626.75
2023-04-15T07:59:57.561Z,95627.94
2023-04-15T08:00:59.346Z,95636.50
2023-04-15T08:02:01.392Z,95634.31
2023-04-15T08:03:03.531Z,95628.94
2023-04-15T08:04:05.639Z,95629.31
2023-04-15T08:05:07.891Z,95631.31
2023-04-15T08:06:09.686Z,95625.09
2023-04-15T08:07:11.542Z,95628.72
2023-04-15T08:08:13.834Z,95637.28
2023-04-15T08:09:15.555Z,95637.50
2023-04-15T08:10:17.729Z,95636.47
2023-04-15T08:11:19.495Z,95633.31
2023-04-15T08:12:21.441Z,95645.81
2023-04-15T08:13:23.215Z,95639.06
2023-04-15T08:14:25.035Z,95641.47
2023-04-15T08:15:26.903Z,95645.03
2023-04-15T08:16:28.884Z,95638.25
2023-04-15T08:17:32.203Z,95648.00
2023-04-15T08:18:34.155Z,95652.22
2023-04-15T08:19:37.429Z,95649.81
2023-04-15T08:20:39.234Z,95650.44
2023-04-15T08:21:41.251Z,95646.25
2023-04-15T08:22:43.094Z,95641.88
2023-04-15T08:23:45.671Z,95652.59
2023-04-15T08:24:47.517Z,95654.41
2023-04-15T08:25:49.345Z,95653.19
2023-04-15T08:26:51.832Z,95660.56
2023-04-15T08:27:56.032Z,95652.59
2023-04-15T08:28:57.905Z,95654.78
2023-04-15T08:30:00.196Z,95656.59
2023-04-15T08:31:03.027Z,95651.41
2023-04-15T08:32:05.063Z,95659.19
2023-04-15T08:33:06.917Z,95660.19
2023-04-15T08:34:09.500Z,95658.56
2023-04-15T08:35:11.278Z,95658.94
2023-04-15T08:36:14.192Z,95651.97
2023-04-15T08:37:15.915Z,95659.75
2023-04-15T08:38:19.157Z,95659.75
2023-04-15T08:39:21.137Z,95659.16
2023-04-15T08:40:24.795Z,95666.94
2023-04-15T08:41:27.543Z,95663.31
2023-04-15T08:42:34.952Z,95667.53
2023-04-15T08:43:41.163Z,95669.09
2023-04-15T08:44:45.120Z,95671.28
2023-04-15T08:45:47.081Z,95678.03
2023-04-15T08:46:49.011Z,95670.88
2023-04-15T08:47:53.389Z,95663.09
2023-04-15T08:48:57.543Z,95672.47
2023-04-15T08:49:59.896Z,95679.44
2023-04-15T08:51:02.758Z,95677.22
2023-04-15T08:52:04.870Z,95678.41
2023-04-15T08:53:07.923Z,95677.81
2023-04-15T08:54:10.228Z,95677.97
2023-04-15T08:55:12.425Z,95674.41
2023-04-15T08:56:15.762Z,95681.16
2023-04-15T08:57:18.465Z,95684.53
2023-04-15T08:58:20.245Z,95675.00
2023-04-15T08:59:22.432Z,95672.41
2023-04-15T09:00:24.377Z,95673.00
2023-04-15T09:01:26.815Z,95677.59
2023-04-15T09:02:28.843Z,95683.00
2023-04-15T09:03:30.858Z,95680.59
2023-04-15T09:04:33.478Z,95682.00
2023-04-15T09:05:38.068Z,95680.59
2023-04-15T09:06:40.302Z,95678.81
2023-04-15T09:07:42.196Z,95688.78
2023-04-15T09:08:44.308Z,95688.53
2023-04-15T09:09:47.199Z,95695.72
2023-04-15T09:10:49.012Z,95693.50
2023-04-15T09:11:52.154Z,95693.69
2023-04-15T09:12:53.963Z,95687.50
2023-04-15T09:13:56.894Z,95699.47
2023-04-15T09:14:59.435Z,95692.91
2023-04-15T09:16:05.673Z,95694.13
2023-04-15T09:17:10.736Z,95691.13
2023-04-15T09:19:21.208Z,95698.06
2023-04-15T09:20:40.422Z,95696.06
2023-04-15T09:21:42.210Z,95691.72
2023-04-15T09:22:47.477Z,95686.72
2023-04-15T09:23:59.094Z,95691.91
2023-04-15T09:25:01.627Z,95689.47
2023-04-15T09:26:04.012Z,95695.69
2023-04-15T09:27:05.897Z,95691.91
2023-04-15T09:28:07.577Z,95697.28
2023-04-15T09:29:10.275Z,95698.31
2023-04-15T09:30:12.236Z,95699.88
2023-04-15T09:31:14.104Z,95697.91
2023-04-15T09:32:16.427Z,95705.88
2023-04-15T09:33:18.266Z,95702.72
2023-04-15T09:34:20.259Z,95702.31
2023-04-15T09:35:22.721Z,95701.50
2023-04-15T09:36:25.371Z,95705.88
2023-04-15T09:37:36.999Z,95709.84
2023-04-15T09:38:54.858Z,95702.28
2023-04-15T09:39:56.698Z,95711.81
2023-04-15T09:40:59.051Z,95709.63
2023-04-15T09:42:07.934Z,95708.00
2023-04-15T09:43:13.161Z,95707.63
2023-04-15T09:44:24.822Z,95700.25
2023-04-15T09:45:29.338Z,95710.59
2023-04-15T09:46:44.798Z,95714.22
2023-04-15T09:47:46.789Z,95707.44
2023-04-15T09:49:07.384Z,95706.22
2023-04-15T09:50:09.425Z,95714.22
2023-04-15T09:51:11.408Z,95713.41
2023-04-15T09:52:14.286Z,95715.41
2023-04-15T09:53:17.123Z,95715.41
2023-04-15T09:54:22.470Z,95715.78
2023-04-15T09:55:24.254Z,95715.59
2023-04-15T09:56:32.473Z,95721.75
2023-04-15T09:57:36.380Z,95718.00
2023-04-15T09:58:39.054Z,95716.00
2023-04-15T09:59:41.220Z,95715.59
2023-04-15T10:00:43.103Z,95724.53
2023-04-15T10:01:45.258Z,95723.91
2023-04-15T10:02:48.746Z,95718.53
2023-04-15T10:03:51.381Z,95722.16
2023-04-15T10:04:54.024Z,95724.75
2023-04-15T10:05:57.353Z,95732.28
2023-04-15T10:06:59.521Z,95729.50
2023-04-15T10:08:02.908Z,95726.75
2023-04-15T10:09:06.839Z,95730.91
2023-04-15T10:10:09.794Z,95740.66
2023-04-15T10:11:12.771Z,95732.09
2023-04-15T10:12:17.017Z,95736.47
2023-04-15T10:13:21.006Z,95736.28
2023-04-15T10:14:24.130Z,95740.28
2023-04-15T10:15:27.182Z,95740.88
2023-04-15T10:16:29.325Z,95744.44
2023-04-15T10:17:37.332Z,95741.28
2023-04-15T10:18:42.970Z,95736.88
2023-04-15T10:19:45.265Z,95740.66
2023-04-15T10:20:48.573Z,95741.28
2023-04-15T10:21:50.762Z,95742.06
2023-04-15T10:22:53.252Z,95746.47
2023-04-15T10:23:55.305Z,95753.63
2023-04-15T10:24:57.546Z,95748.66
2023-04-15T10:26:00.536Z,95746.06
2023-04-15T10:27:05.592Z,95750.06
2023-04-15T10:28:09.119Z,95754.03
2023-04-15T10:29:11.054Z,95760.78
2023-04-15T10:30:13.058Z,95759.59
2023-04-15T10:31:15.514Z,95754.44
2023-04-15T10:32:21.462Z,95752.63
2023-04-15T10:33:24.180Z,95751.63
2023-04-15T10:34:26.418Z,95757.25
2023-04-15T10:35:29.895Z,95757.63
2023-04-15T10:36:31.726Z,95757.06
2023-04-15T10:37:36.877Z,95760.84
2023-04-15T10:38:40.035Z,95758.47
2023-04-15T10:39:43.401Z,95760.03
2023-04-15T10:40:46.006Z,95755.06
2023-04-15T10:42:07.568Z,95758.81
2023-04-15T10:43:25.046Z,95764.78
2023-04-15T10:44:26.822Z,95756.03
2023-04-15T10:45:38.068Z,95756.63
2023-04-15T10:46:46.015Z,95756.22
2023-04-15T10:47:53.563Z,95765.38
2023-04-15T10:48:55.458Z,95761.22
2023-04-15T10:49:58.890Z,95766.78
2023-04-15T10:51:05.378Z,95773.94
2023-04-15T10:52:08.656Z,95771.56
2023-04-15T10:53:10.996Z,95765.19
2023-04-15T10:54:16.723Z,95771.59
2023-04-15T10:55:22.784Z,95774.59
2023-04-15T10:56:24.625Z,95777.19
2023-04-15T10:57:34.544Z,95778.78
2023-04-15T10:58:44.524Z,95780.75
2023-04-15T10:59:55.340Z,95774.41
2023-04-15T11:00:57.087Z,95776.59
2023-04-15T11:02:03.087Z,95775.97
2023-04-15T11:03:09.857Z,95777.97
2023-04-15T11:04:12.074Z,95778.16
2023-04-15T11:05:14.685Z,95786.31
2023-04-15T11:06:16.562Z,95784.13
2023-04-15T11:07:33.657Z,95786.13
2023-04-15T11:08:56.150Z,95791.69
2023-04-15T11:09:57.931Z,95791.53
2023-04-15T11:11:00.617Z,95782.13
2023-04-15T11:12:10.572Z,95791.50
2023-04-15T11:13:12.309Z,95791.31
2023-04-15T11:14:17.004Z,95790.94
2023-04-15T11:15:33.943Z,95794.50
2023-04-15T11:16:43.238Z,95787.94
2023-04-15T11:17:46.435Z,95793.09
2023-04-15T11:18:58.339Z,95792.31
2023-04-15T11:20:00.438Z,95795.13
2023-04-15T11:21:06.645Z,95796.31
2023-04-15T11:22:09.895Z,95794.31
2023-04-15T11:23:15.151Z,95799.50
2023-04-15T11:24:29.373Z,95793.69
2023-04-15T11:25:32.469Z,95797.06
2023-04-15T11:26:34.694Z,95796.28
2023-04-15T11:27:36.473Z,95801.47
2023-04-15T11:28:40.242Z,95798.69
2023-04-15T11:29:41.978Z,95798.25
2023-04-15T11:30:44.090Z,95800.25
2023-04-15T11:31:50.411Z,95803.06
2023-04-15T11:32:53.143Z,95800.09
2023-04-15T11:33:59.656Z,95805.28
2023-04-15T11:35:01.477Z,95811.03
2023-04-15T11:36:04.631Z,95805.88
2023-04-15T11:37:06.889Z,95809.66
2023-04-15T11:38:10.352Z,95814.84
2023-04-15T11:39:12.200Z,95814.84
2023-04-15T11:40:15.698Z,95813.06
2023-04-15T11:41:21.192Z,95811.28
2023-04-15T11:42:22.890Z,95811.84
2023-04-15T11:43:25.503Z,95811.06
2023-04-15T11:44:27.350Z,95815.63
2023-04-15T11:45:29.207Z,95810.25
2023-04-15T11:46:32.167Z,95810.25
2023-04-15T11:47:34.216Z,95818.00
2023-04-15T11:48:37.031Z,95817.97
2023-04-15T11:49:41.885Z,95819.94
2023-04-15T11:50:43.694Z,95814.41
2023-04-15T11:51:45.623Z,95813.38
2023-04-15T11:52:58.084Z,95811.38
2023-04-15T11:53:59.992Z,95817.16
2023-04-15T11:55:05.001Z,95816.19
2023-04-15T11:56:07.299Z,95817.34
2023-04-15T11:57:09.117Z,95820.75
2023-04-15T11:58:20.666Z,95823.53
2023-04-15T11:59:23.007Z,95825.13
2023-04-15T12:00:27.238Z,95834.28
2023-04-15T12:01:36.276Z,95822.53
2023-04-15T12:02:38.187Z,95830.91
2023-04-15T12:03:41.887Z,95833.69
2023-04-15T12:04:44.031Z,95831.31
2023-04-15T12:06:04.518Z,95820.53
2023-04-15T12:07:07.762Z,95826.91
2023-04-15T12:08:09.515Z,95828.91
2023-04-15T12:09:14.899Z,95834.91
2023-04-15T12:10:18.075Z,95827.94
2023-04-15T12:11:38.573Z,95834.31
2023-04-15T12:12:41.357Z,95832.31
2023-04-15T12:13:50.376Z,95832.50
2023-04-15T12:14:52.380Z,95832.50
2023-04-15T12:15:56.328Z,95839.28
2023-04-15T12:17:01.775Z,95826.91
2023-04-15T12:18:03.577Z,95845.66
2023-04-15T12:19:09.436Z,95847.81
2023-04-15T12:20:11.324Z,95836.84